createdAt,value
2023-11-01T00:01:36.381Z,10.93
2023-11-01T00:03:38.828Z,10.90
2023-11-01T00:05:40.731Z,12.75
2023-11-01T00:07:42.556Z,13.60
2023-11-01T00:09:44.481Z,10.63
2023-11-01T00:11:49.494Z,9.63
2023-11-01T00:13:51.708Z,12.52
2023-11-01T00:15:53.455Z,7.80
2023-11-01T00:17:56.708Z,10.30
2023-11-01T00:19:58.557Z,12.27
2023-11-01T00:22:00.147Z,9.10
2023-11-01T00:24:02.147Z,13.65
2023-11-01T00:26:04.006Z,12.95
2023-11-01T00:28:05.675Z,12.77
2023-11-01T00:30:08.360Z,13.90
2023-11-01T00:32:10.424Z,14.30
2023-11-01T00:34:12.208Z,15.80
2023-11-01T00:36:14.013Z,12.88
2023-11-01T00:38:20.633Z,10.43
2023-11-01T00:40:22.286Z,13.50
2023-11-01T00:42:23.953Z,9.50
2023-11-01T00:44:25.739Z,11.70
2023-11-01T00:46:27.504Z,14.60
2023-11-01T00:48:29.561Z,15.40
2023-11-01T00:50:31.966Z,11.02
2023-11-01T00:52:33.654Z,15.05
2023-11-01T00:54:35.259Z,9.43
2023-11-01T00:56:37.205Z,14.60
2023-11-01T00:58:39.236Z,12.70
2023-11-01T01:00:42.157Z,18.60
2023-11-01T01:02:45.033Z,19.38
2023-11-01T01:04:48.080Z,13.07
2023-11-01T01:06:49.768Z,13.10
2023-11-01T01:08:52.541Z,14.70
2023-11-01T01:10:54.517Z,10.43
2023-11-01T01:12:56.475Z,12.57
2023-11-01T01:14:58.788Z,13.38
2023-11-01T01:17:00.663Z,10.50
2023-11-01T01:19:02.678Z,10.18
2023-11-01T01:21:04.563Z,9.85
2023-11-01T01:23:06.324Z,10.55
2023-11-01T01:25:08.369Z,9.57
2023-11-01T01:27:10.059Z,8.48
2023-11-01T01:29:11.749Z,8.98
2023-11-01T01:31:15.261Z,11.95
2023-11-01T01:33:17.077Z,11.05
2023-11-01T01:35:19.474Z,9.23
2023-11-01T01:37:21.082Z,11.35
2023-11-01T01:39:24.069Z,10.90
2023-11-01T01:41:25.730Z,8.52
2023-11-01T01:43:28.887Z,11.10
2023-11-01T01:45:30.688Z,7.55
2023-11-01T01:47:34.619Z,10.43
2023-11-01T01:49:43.331Z,7.47
2023-11-01T01:51:47.405Z,9.45
2023-11-01T01:53:49.753Z,10.32
2023-11-01T01:55:52.205Z,10.15
2023-11-01T01:57:53.985Z,8.68
2023-11-01T01:59:56.479Z,11.93
2023-11-01T02:01:58.525Z,10.20
2023-11-01T02:04:00.226Z,11.18
2023-11-01T02:06:03.833Z,10.70
2023-11-01T02:08:05.796Z,13.35
2023-11-01T02:10:16.301Z,11.18
2023-11-01T02:12:18.348Z,10.60
2023-11-01T02:14:22.638Z,10.27
2023-11-01T02:16:24.630Z,9.13
2023-11-01T02:18:26.260Z,10.65
2023-11-01T02:20:28.307Z,13.68
2023-11-01T02:22:30.358Z,8.48
2023-11-01T02:24:32.162Z,12.38
2023-11-01T02:26:34.087Z,11.35
2023-11-01T02:28:36.302Z,11.90
2023-11-01T02:30:39.352Z,10.50
2023-11-01T02:32:41.288Z,11.63
2023-11-01T02:34:43.464Z,10.13
2023-11-01T02:36:45.297Z,13.52
2023-11-01T02:38:47.038Z,9.80
2023-11-01T02:40:49.300Z,9.63
2023-11-01T02:42:56.445Z,11.82
2023-11-01T02:44:58.631Z,15.60
2023-11-01T02:47:00.316Z,8.57
2023-11-01T02:49:05.323Z,10.32
2023-11-01T02:51:07.147Z,9.88
2023-11-01T02:53:08.863Z,9.93
2023-11-01T02:55:12.719Z,8.77
2023-11-01T02:57:14.362Z,9.45
2023-11-01T02:59:16.630Z,10.55
2023-11-01T03:01:18.792Z,10.63
2023-11-01T03:03:20.536Z,11.98
2023-11-01T03:05:23.953Z,10.02
2023-11-01T03:07:25.817Z,8.73
2023-11-01T03:09:27.487Z,11.70
2023-11-01T03:11:29.266Z,10.20
2023-11-01T03:13:31.476Z,10.82
2023-11-01T03:15:33.203Z,9.65
2023-11-01T03:17:36.533Z,8.63
2023-11-01T03:19:38.563Z,9.18
2023-11-01T03:21:42.632Z,9.50
2023-11-01T03:23:44.401Z,9.57
2023-11-01T03:25:46.179Z,9.57
2023-11-01T03:27:47.871Z,10.73
2023-11-01T03:29:49.705Z,8.18
2023-11-01T03:31:51.644Z,12.32
2023-11-01T03:33:53.433Z,8.55
2023-11-01T03:35:55.470Z,14.10
2023-11-01T03:37:57.159Z,11.40
2023-11-01T03:39:58.864Z,8.60
2023-11-01T03:42:06.001Z,9.38
2023-11-01T03:44:08.207Z,9.15
2023-11-01T03:46:10.128Z,9.35
2023-11-01T03:48:12.072Z,9.32
2023-11-01T03:50:13.911Z,9.82
2023-11-01T03:52:16.021Z,14.43
2023-11-01T03:54:17.911Z,12.07
2023-11-01T03:56:21.971Z,11.65
2023-11-01T03:58:23.841Z,11.27
2023-11-01T04:00:25.533Z,15.27
2023-11-01T04:02:27.324Z,11.98
2023-11-01T04:04:29.434Z,12.40
2023-11-01T04:06:33.503Z,13.10
2023-11-01T04:08:35.192Z,10.45
2023-11-01T04:10:36.881Z,12.60
2023-11-01T04:12:38.752Z,13.07
2023-11-01T04:14:40.869Z,12.45
2023-11-01T04:16:42.726Z,10.48
2023-11-01T04:18:44.595Z,12.15
2023-11-01T04:20:46.473Z,12.15
2023-11-01T04:22:48.213Z,12.73
2023-11-01T04:24:50.646Z,14.18
2023-11-01T04:26:53.686Z,14.20
2023-11-01T04:28:55.539Z,14.88
2023-11-01T04:30:57.847Z,14.43
2023-11-01T04:33:00.963Z,12.88
2023-11-01T04:35:04.002Z,12.95
2023-11-01T04:37:05.874Z,12.43
2023-11-01T04:39:07.639Z,14.70
2023-11-01T04:41:12.580Z,13.10
2023-11-01T04:43:15.907Z,12.48
2023-11-01T04:45:17.757Z,12.40
2023-11-01T04:47:19.583Z,16.42
2023-11-01T04:49:25.204Z,14.52
2023-11-01T04:51:26.896Z,13.48
2023-11-01T04:53:28.779Z,19.45
2023-11-01T04:55:31.008Z,14.13
2023-11-01T04:57:37.394Z,14.40
2023-11-01T04:59:39.115Z,13.60
2023-11-01T05:01:40.886Z,15.93
2023-11-01T05:03:42.753Z,14.85
2023-11-01T05:05:44.750Z,13.55
2023-11-01T05:07:46.694Z,14.32
2023-11-01T05:09:48.776Z,12.30
2023-11-01T05:11:51.681Z,17.05
2023-11-01T05:13:56.151Z,12.00
2023-11-01T05:15:57.816Z,17.83
2023-11-01T05:18:00.960Z,14.50
2023-11-01T05:20:05.283Z,16.35
2023-11-01T05:22:07.424Z,15.73
2023-11-01T05:24:13.511Z,17.48
2023-11-01T05:26:17.916Z,17.58
2023-11-01T05:28:19.880Z,16.05
2023-11-01T05:30:22.276Z,17.08
2023-11-01T05:32:23.943Z,19.02
2023-11-01T05:34:25.703Z,14.90
2023-11-01T05:36:29.448Z,16.83
2023-11-01T05:38:31.202Z,19.65
2023-11-01T05:40:32.904Z,18.90
2023-11-01T05:42:34.605Z,19.90
2023-11-01T05:44:36.516Z,18.05
2023-11-01T05:46:40.855Z,18.52
2023-11-01T05:48:43.589Z,21.33
2023-11-01T05:50:45.918Z,20.38
2023-11-01T05:52:47.689Z,26.65
2023-11-01T05:54:51.660Z,16.85
2023-11-01T05:56:55.719Z,17.00
2023-11-01T05:58:57.347Z,15.13
2023-11-01T06:00:59.102Z,16.30
2023-11-01T06:03:01.432Z,15.77
2023-11-01T06:05:05.395Z,15.27
2023-11-01T06:07:07.664Z,17.70
2023-11-01T06:09:09.851Z,18.73
2023-11-01T06:11:11.642Z,20.10
2023-11-01T06:13:13.380Z,17.38
2023-11-01T06:15:16.256Z,20.33
2023-11-01T06:17:17.970Z,14.37
2023-11-01T06:19:20.031Z,23.27
2023-11-01T06:21:21.731Z,15.80
2023-11-01T06:23:23.452Z,18.98
2023-11-01T06:25:25.450Z,13.57
2023-11-01T06:27:29.656Z,17.48
2023-11-01T06:29:32.400Z,16.50
2023-11-01T06:31:35.828Z,14.18
2023-11-01T06:33:39.700Z,13.07
2023-11-01T06:35:41.524Z,13.73
2023-11-01T06:37:43.609Z,14.52
2023-11-01T06:39:45.374Z,15.25
2023-11-01T06:41:47.327Z,15.70
2023-11-01T06:43:49.469Z,18.38
2023-11-01T06:45:51.755Z,17.48
2023-11-01T06:47:53.624Z,14.57
2023-11-01T06:49:57.892Z,10.82
2023-11-01T06:52:02.158Z,15.60
2023-11-01T06:54:04.037Z,13.38
2023-11-01T06:56:06.335Z,14.68
2023-11-01T06:58:08.059Z,11.85
2023-11-01T07:00:10.252Z,13.10
2023-11-01T07:02:11.892Z,12.25
2023-11-01T07:04:16.114Z,11.82
2023-11-01T07:06:22.028Z,12.40
2023-11-01T07:08:24.093Z,16.65
2023-11-01T07:10:25.996Z,14.20
2023-11-01T07:12:28.971Z,14.45
2023-11-01T07:14:31.148Z,14.90
2023-11-01T07:16:33.160Z,18.20
2023-11-01T07:18:42.295Z,13.32
2023-11-01T07:20:45.027Z,14.82
2023-11-01T07:22:46.857Z,11.50
2023-11-01T07:24:51.013Z,11.68
2023-11-01T07:26:52.711Z,11.35
2023-11-01T07:28:55.919Z,11.80
2023-11-01T07:30:59.117Z,11.32
2023-11-01T07:33:01.395Z,10.80
2023-11-01T07:35:05.045Z,15.32
2023-11-01T07:37:06.894Z,16.27
2023-11-01T07:39:09.284Z,10.88
2023-11-01T07:41:11.146Z,9.90
2023-11-01T07:43:12.891Z,13.82
2023-11-01T07:45:14.766Z,15.90
2023-11-01T07:47:18.206Z,13.02
2023-11-01T07:49:19.839Z,12.25
2023-11-01T07:51:22.417Z,9.35
2023-11-01T07:53:25.441Z,10.27
2023-11-01T07:55:27.160Z,12.55
2023-11-01T07:57:29.974Z,11.70
2023-11-01T07:59:31.728Z,10.13
2023-11-01T08:01:33.874Z,9.73
2023-11-01T08:03:38.537Z,13.43
2023-11-01T08:05:40.434Z,9.77
2023-11-01T08:07:42.072Z,14.07
2023-11-01T08:09:50.614Z,14.13
2023-11-01T08:11:52.397Z,16.23
2023-11-01T08:13:54.074Z,16.20
2023-11-01T08:15:55.761Z,15.43
2023-11-01T08:17:57.693Z,18.13
2023-11-01T08:20:02.529Z,11.50
2023-11-01T08:22:07.054Z,23.55
2023-11-01T08:24:09.202Z,17.15
2023-11-01T08:26:17.689Z,15.75
2023-11-01T08:28:19.896Z,12.70
2023-11-01T08:30:22.231Z,11.68
2023-11-01T08:32:24.403Z,10.27
2023-11-01T08:34:26.480Z,16.88
2023-11-01T08:36:28.188Z,15.88
2023-11-01T08:38:30.366Z,19.42
2023-11-01T08:40:32.167Z,16.90
2023-11-01T08:42:35.304Z,13.82
2023-11-01T08:44:37.090Z,21.67
2023-11-01T08:46:38.891Z,17.77
2023-11-01T08:48:40.757Z,12.40
2023-11-01T08:50:42.677Z,10.20
2023-11-01T08:52:45.899Z,10.60
2023-11-01T08:54:48.946Z,8.20
2023-11-01T08:56:52.709Z,7.97
2023-11-01T08:58:54.406Z,8.25
2023-11-01T09:00:58.553Z,8.27
2023-11-01T09:03:01.687Z,8.20
2023-11-01T09:05:03.717Z,12.57
2023-11-01T09:07:05.599Z,8.45
2023-11-01T09:09:07.812Z,5.97
2023-11-01T09:11:09.528Z,10.13
2023-11-01T09:13:11.598Z,7.70
2023-11-01T09:15:13.378Z,6.60
2023-11-01T09:17:15.728Z,6.13
2023-11-01T09:19:17.542Z,8.73
2023-11-01T09:21:20.561Z,9.70
2023-11-01T09:23:23.544Z,11.02
2023-11-01T09:25:28.944Z,8.85
2023-11-01T09:27:30.625Z,7.88
2023-11-01T09:29:32.294Z,15.23
2023-11-01T09:31:37.245Z,13.90
2023-11-01T09:33:39.280Z,11.52
2023-11-01T09:35:41.214Z,13.55
2023-11-01T09:37:43.371Z,14.40
2023-11-01T09:39:45.356Z,15.45
2023-11-01T09:41:52.097Z,17.15
2023-11-01T09:43:59.665Z,11.45
2023-11-01T09:46:06.800Z,11.48
2023-11-01T09:48:09.576Z,12.15
2023-11-01T09:50:13.672Z,11.65
2023-11-01T09:52:15.600Z,11.77
2023-11-01T09:54:17.190Z,21.88
2023-11-01T09:56:21.360Z,13.32
2023-11-01T09:58:24.376Z,14.70
2023-11-01T10:00:30.228Z,11.95
2023-11-01T10:02:32.057Z,12.90
2023-11-01T10:04:35.841Z,19.38
2023-11-01T10:06:38.013Z,13.27
2023-11-01T10:08:40.284Z,12.98
2023-11-01T10:10:42.766Z,14.57
2023-11-01T10:12:47.219Z,14.52
2023-11-01T10:14:49.386Z,12.80
2023-11-01T10:16:51.128Z,11.55
2023-11-01T10:18:53.959Z,12.55
2023-11-01T10:20:58.673Z,13.00
2023-11-01T10:23:00.509Z,12.32
2023-11-01T10:25:04.495Z,10.98
2023-11-01T10:27:08.001Z,8.95
2023-11-01T10:29:09.706Z,10.15
2023-11-01T10:31:15.812Z,13.13
2023-11-01T10:33:20.441Z,10.48
2023-11-01T10:35:22.280Z,10.45
2023-11-01T10:37:31.663Z,10.40
2023-11-01T10:39:38.865Z,10.45
2023-11-01T10:41:40.629Z,9.18
2023-11-01T10:43:42.374Z,12.40
2023-11-01T10:45:44.511Z,10.98
2023-11-01T10:47:49.287Z,11.07
2023-11-01T10:49:53.293Z,9.27
2023-11-01T10:51:56.749Z,9.95
2023-11-01T10:54:03.135Z,7.35
2023-11-01T10:56:08.747Z,10.73
2023-11-01T10:58:17.797Z,9.70
2023-11-01T11:00:25.710Z,8.93
2023-11-01T11:02:34.384Z,7.70
2023-11-01T11:04:53.176Z,8.57
2023-11-01T11:07:36.177Z,9.75
2023-11-01T11:09:39.396Z,9.55
2023-11-01T11:11:41.262Z,9.25
2023-11-01T11:13:44.006Z,11.02
2023-11-01T11:15:49.400Z,9.15
2023-11-01T11:18:07.703Z,9.75
2023-11-01T11:20:14.088Z,9.48
2023-11-01T11:22:17.162Z,10.30
2023-11-01T11:24:56.881Z,9.35
2023-11-01T11:26:58.686Z,10.05
2023-11-01T11:29:00.899Z,10.07
2023-11-01T11:31:06.674Z,7.80
2023-11-01T11:33:08.624Z,9.50
2023-11-01T11:35:22.432Z,9.18
2023-11-01T11:37:30.190Z,7.63
2023-11-01T11:40:08.744Z,11.27
2023-11-01T11:42:59.257Z,12.80
2023-11-01T11:45:02.535Z,9.75
2023-11-01T11:47:32.971Z,15.68
2023-11-01T11:49:38.967Z,8.68
2023-11-01T11:51:51.119Z,9.48
2023-11-01T11:53:53.546Z,9.25
2023-11-01T11:55:55.509Z,8.82
2023-11-01T11:57:57.223Z,17.27
2023-11-01T12:00:09.110Z,11.98
2023-11-01T12:02:19.890Z,12.38
2023-11-01T12:04:22.722Z,11.20
2023-11-01T12:08:37.727Z,10.27
2023-11-01T12:10:50.651Z,9.10
2023-11-01T12:12:55.632Z,7.80
2023-11-01T12:14:59.653Z,7.40
2023-11-01T12:17:03.359Z,9.38
2023-11-01T12:21:14.079Z,9.65
2023-11-01T12:23:15.965Z,9.00
2023-11-01T12:25:24.584Z,8.77
2023-11-01T12:27:31.111Z,7.97
2023-11-01T12:29:43.656Z,10.18
2023-11-01T12:32:00.145Z,7.35
2023-11-01T12:34:15.517Z,9.05
2023-11-01T12:36:29.049Z,10.43
2023-11-01T12:38:34.456Z,10.25
2023-11-01T12:40:38.806Z,7.22
2023-11-01T12:42:42.849Z,12.32
2023-11-01T12:44:44.670Z,11.77
2023-11-01T12:46:46.940Z,9.45
2023-11-01T12:48:49.945Z,11.07
2023-11-01T12:50:52.772Z,14.35
2023-11-01T12:52:55.420Z,9.47
2023-11-01T12:54:57.144Z,9.38
2023-11-01T12:56:59.321Z,8.88
2023-11-01T12:59:19.978Z,10.68
2023-11-01T13:01:22.861Z,6.95
2023-11-01T13:03:24.829Z,8.55
2023-11-01T13:05:27.878Z,12.00
2023-11-01T13:07:32.318Z,8.15
2023-11-01T13:09:34.802Z,10.32
2023-11-01T13:11:36.543Z,10.35
2023-11-01T13:13:38.546Z,9.20
2023-11-01T13:15:40.311Z,8.80
2023-11-01T13:17:42.327Z,7.25
2023-11-01T13:19:44.158Z,7.93
2023-11-01T13:21:46.476Z,9.50
2023-11-01T13:23:48.843Z,13.55
2023-11-01T13:25:50.672Z,10.13
2023-11-01T13:27:52.350Z,12.85
2023-11-01T13:29:54.237Z,10.15
2023-11-01T13:31:57.561Z,6.65
2023-11-01T13:33:59.242Z,8.13
2023-11-01T13:36:02.438Z,11.95
2023-11-01T13:38:04.255Z,7.72
2023-11-01T13:40:06.608Z,7.38
2023-11-01T13:42:08.779Z,8.43
2023-11-01T13:44:11.153Z,7.55
2023-11-01T13:46:14.549Z,7.13
2023-11-01T13:48:16.527Z,5.13
2023-11-01T13:50:18.674Z,8.05
2023-11-01T13:52:21.531Z,9.57
2023-11-01T13:54:23.606Z,9.57
2023-11-01T13:56:25.448Z,7.97
2023-11-01T13:58:27.983Z,5.50
2023-11-01T14:00:30.799Z,8.23
2023-11-01T14:02:33.863Z,6.43
2023-11-01T14:04:41.134Z,7.68
2023-11-01T14:06:42.907Z,7.75
2023-11-01T14:08:45.489Z,13.32
2023-11-01T14:10:49.334Z,6.75
2023-11-01T14:12:52.166Z,6.45
2023-11-01T14:14:53.834Z,6.77
2023-11-01T14:16:56.083Z,7.00
2023-11-01T14:18:59.951Z,9.13
2023-11-01T14:21:04.231Z,7.60
2023-11-01T14:23:05.923Z,7.18
2023-11-01T14:25:08.075Z,10.25
2023-11-01T14:27:12.311Z,8.05
2023-11-01T14:29:14.191Z,9.38
2023-11-01T14:31:20.939Z,11.35
2023-11-01T14:33:23.533Z,7.90
2023-11-01T14:35:25.701Z,8.95
2023-11-01T14:37:27.524Z,8.07
2023-11-01T14:39:29.166Z,5.63
2023-11-01T14:41:32.650Z,9.13
2023-11-01T14:43:34.654Z,11.68
2023-11-01T14:45:36.929Z,7.25
2023-11-01T14:47:38.795Z,5.57
2023-11-01T14:49:40.499Z,6.22
2023-11-01T14:51:43.334Z,5.35
2023-11-01T14:53:46.459Z,7.97
2023-11-01T14:55:48.457Z,5.70
2023-11-01T14:57:50.175Z,7.43
2023-11-01T14:59:52.340Z,7.20
2023-11-01T15:01:58.287Z,9.15
2023-11-01T15:04:00.159Z,7.88
2023-11-01T15:06:02.003Z,8.82
2023-11-01T15:08:03.876Z,9.18
2023-11-01T15:10:06.440Z,6.43
2023-11-01T15:12:08.464Z,10.50
2023-11-01T15:14:11.865Z,11.82
2023-11-01T15:16:15.845Z,8.75
2023-11-01T15:18:17.677Z,7.25
2023-11-01T15:20:19.415Z,12.80
2023-11-01T15:22:23.257Z,8.80
2023-11-01T15:24:29.540Z,6.97
2023-11-01T15:26:35.185Z,8.85
2023-11-01T15:28:36.969Z,17.15
2023-11-01T15:30:39.195Z,13.45
2023-11-01T15:32:41.394Z,9.85
2023-11-01T15:34:44.321Z,14.07
2023-11-01T15:36:48.962Z,11.52
2023-11-01T15:38:51.207Z,10.30
2023-11-01T15:40:54.082Z,11.60
2023-11-01T15:42:55.983Z,16.38
2023-11-01T15:44:58.165Z,14.90
2023-11-01T15:46:59.920Z,10.50
2023-11-01T15:49:02.627Z,9.63
2023-11-01T15:51:04.799Z,15.55
2023-11-01T15:53:06.508Z,9.55
2023-11-01T15:55:09.775Z,11.32
2023-11-01T15:57:14.165Z,12.25
2023-11-01T15:59:16.535Z,7.80
2023-11-01T16:01:21.449Z,10.20
2023-11-01T16:03:23.202Z,13.68
2023-11-01T16:05:26.205Z,8.65
2023-11-01T16:07:30.535Z,8.30
2023-11-01T16:09:35.352Z,8.57
2023-11-01T16:11:38.404Z,9.00
2023-11-01T16:13:42.315Z,8.98
2023-11-01T16:15:44.484Z,7.68
2023-11-01T16:17:46.777Z,11.10
2023-11-01T16:19:48.917Z,14.48
2023-11-01T16:21:50.872Z,8.80
2023-11-01T16:23:55.975Z,15.00
2023-11-01T16:25:57.991Z,14.40
2023-11-01T16:28:00.126Z,11.45
2023-11-01T16:30:02.358Z,10.80
2023-11-01T16:32:04.809Z,12.40
2023-11-01T16:34:06.779Z,8.45
2023-11-01T16:36:08.969Z,11.32
2023-11-01T16:38:11.137Z,10.50
2023-11-01T16:40:13.695Z,10.38
2023-11-01T16:42:17.297Z,13.93
2023-11-01T16:46:21.051Z,9.40
2023-11-01T16:48:22.839Z,8.43
2023-11-01T16:50:24.716Z,9.05
2023-11-01T16:52:26.822Z,11.32
2023-11-01T16:54:29.358Z,12.80
2023-11-01T16:56:31.977Z,10.48
2023-11-01T16:58:33.698Z,10.93
2023-11-01T17:00:38.019Z,14.25
2023-11-01T17:02:47.892Z,11.70
2023-11-01T17:04:53.026Z,12.07
2023-11-01T17:06:55.184Z,8.25
2023-11-01T17:08:56.988Z,9.82
2023-11-01T17:10:58.905Z,10.02
2023-11-01T17:13:01.552Z,7.65
2023-11-01T17:15:05.304Z,9.18
2023-11-01T17:17:09.227Z,14.23
2023-11-01T17:19:11.088Z,9.45
2023-11-01T17:21:15.179Z,8.05
2023-11-01T17:23:16.835Z,9.75
2023-11-01T17:25:46.588Z,13.38
2023-11-01T17:27:48.255Z,14.02
2023-11-01T17:29:51.787Z,16.30
2023-11-01T17:31:53.736Z,14.25
2023-11-01T17:33:56.053Z,13.82
2023-11-01T17:35:57.752Z,14.02
2023-11-01T17:38:21.239Z,13.77
2023-11-01T17:40:23.436Z,12.52
2023-11-01T17:42:25.088Z,13.75
2023-11-01T17:44:32.378Z,9.02
2023-11-01T17:46:34.182Z,14.25
2023-11-01T17:48:36.019Z,17.05
2023-11-01T17:50:37.864Z,16.30
2023-11-01T17:52:42.586Z,22.52
2023-11-01T17:54:44.200Z,16.95
2023-11-01T17:56:46.373Z,9.77
2023-11-01T17:58:55.822Z,18.23
2023-11-01T18:00:57.700Z,12.77
2023-11-01T18:03:18.065Z,87.35
2023-11-01T18:05:36.801Z,54.00
2023-11-01T18:07:42.329Z,41.40
2023-11-01T18:09:44.158Z,40.28
2023-11-01T18:11:46.497Z,28.33
2023-11-01T18:13:48.311Z,37.38
2023-11-01T18:15:52.710Z,25.45
2023-11-01T18:17:55.552Z,29.38
2023-11-01T18:19:58.321Z,26.95
2023-11-01T18:22:00.158Z,22.50
2023-11-01T18:24:13.609Z,25.42
2023-11-01T18:26:22.386Z,21.80
2023-11-01T18:28:25.497Z,22.48
2023-11-01T18:30:28.435Z,21.90
2023-11-01T18:32:30.202Z,24.03
2023-11-01T18:34:37.571Z,23.77
2023-11-01T18:36:48.682Z,26.00
2023-11-01T18:38:58.642Z,22.70
2023-11-01T18:41:04.109Z,22.05
2023-11-01T18:43:06.363Z,24.20
2023-11-01T18:45:13.990Z,24.35
2023-11-01T18:47:18.450Z,21.35
2023-11-01T18:50:01.700Z,21.63
2023-11-01T18:52:08.336Z,21.77
2023-11-01T18:54:10.646Z,20.38
2023-11-01T18:56:14.152Z,18.98
2023-11-01T18:58:15.878Z,21.33
2023-11-01T19:00:29.629Z,22.45
2023-11-01T19:02:39.559Z,21.95
2023-11-01T19:04:41.279Z,17.50
2023-11-01T19:06:44.876Z,17.33
2023-11-01T19:08:46.920Z,18.17
2023-11-01T19:10:50.766Z,14.23
2023-11-01T19:14:58.868Z,20.05
2023-11-01T19:17:01.616Z,21.27
2023-11-01T19:19:03.749Z,15.40
2023-11-01T19:21:06.017Z,22.75
2023-11-01T19:23:08.056Z,22.80
2023-11-01T19:25:11.224Z,21.25
2023-11-01T19:27:18.424Z,21.92
2023-11-01T19:29:26.540Z,24.38
2023-11-01T19:31:31.281Z,26.08
2023-11-01T19:33:34.197Z,25.45
2023-11-01T19:35:36.556Z,21.15
2023-11-01T19:37:41.814Z,18.65
2023-11-01T19:39:45.050Z,31.13
2023-11-01T19:41:47.164Z,26.45
2023-11-01T19:43:50.131Z,22.50
2023-11-01T19:45:54.266Z,19.13
2023-11-01T19:47:56.430Z,20.63
2023-11-01T19:49:58.927Z,21.60
2023-11-01T19:52:00.674Z,19.83
2023-11-01T19:54:04.221Z,26.02
2023-11-01T19:56:06.908Z,22.20
2023-11-01T19:58:08.761Z,23.23
2023-11-01T20:00:13.002Z,24.90
2023-11-01T20:02:15.311Z,23.13
2023-11-01T20:04:17.983Z,22.73
2023-11-01T20:06:21.233Z,23.67
2023-11-01T20:08:22.939Z,26.95
2023-11-01T20:10:26.479Z,20.35
2023-11-01T20:12:31.351Z,23.02
2023-11-01T20:14:34.664Z,21.13
2023-11-01T20:16:38.524Z,23.75
2023-11-01T20:18:40.368Z,21.30
2023-11-01T20:20:44.784Z,23.15
2023-11-01T20:22:46.599Z,26.85
2023-11-01T20:24:48.822Z,25.55
2023-11-01T20:26:51.417Z,27.25
2023-11-01T20:28:54.137Z,22.60
2023-11-01T20:30:56.342Z,23.48
2023-11-01T20:32:58.319Z,25.40
2023-11-01T20:35:01.352Z,24.35
2023-11-01T20:37:04.089Z,22.75
2023-11-01T20:39:06.735Z,21.15
2023-11-01T20:41:11.045Z,26.75
2023-11-01T20:43:12.739Z,22.23
2023-11-01T20:45:15.398Z,27.05
2023-11-01T20:47:19.228Z,22.00
2023-11-01T20:51:23.408Z,19.60
2023-11-01T20:53:25.138Z,21.35
2023-11-01T20:55:29.774Z,17.02
2023-11-01T20:57:34.440Z,20.02
2023-11-01T20:59:37.625Z,17.25
2023-11-01T21:01:40.666Z,19.25
2023-11-01T21:03:42.521Z,17.77
2023-11-01T21:05:44.289Z,18.90
2023-11-01T21:07:46.843Z,21.92
2023-11-01T21:09:48.930Z,16.65
2023-11-01T21:11:50.699Z,15.10
2023-11-01T21:13:53.456Z,15.57
2023-11-01T21:15:57.698Z,17.58
2023-11-01T21:17:59.570Z,21.52
2023-11-01T21:20:01.429Z,18.83
2023-11-01T21:22:03.306Z,18.98
2023-11-01T21:24:05.707Z,18.65
2023-11-01T21:26:10.551Z,14.35
2023-11-01T21:28:12.561Z,14.93
2023-11-01T21:30:14.845Z,17.48
2023-11-01T21:32:17.148Z,19.85
2023-11-01T21:34:19.133Z,15.13
2023-11-01T21:36:21.122Z,15.43
2023-11-01T21:38:22.802Z,16.42
2023-11-01T21:40:24.811Z,14.98
2023-11-01T21:42:27.122Z,15.13
2023-11-01T21:44:40.041Z,18.42
2023-11-01T21:46:42.853Z,14.27
2023-11-01T21:48:45.280Z,16.63
2023-11-01T21:50:58.649Z,12.98
2023-11-01T21:53:00.539Z,14.30
2023-11-01T21:55:11.423Z,16.13
2023-11-01T21:57:13.662Z,15.13
2023-11-01T21:59:17.654Z,15.82
2023-11-01T22:01:22.422Z,15.35
2023-11-01T22:03:38.111Z,18.58
2023-11-01T22:05:40.022Z,14.77
2023-11-01T22:07:41.837Z,12.18
2023-11-01T22:09:47.932Z,12.20
2023-11-01T22:11:52.123Z,19.17
2023-11-01T22:13:54.008Z,19.35
2023-11-01T22:15:55.822Z,20.58
2023-11-01T22:17:57.773Z,18.42
2023-11-01T22:19:59.728Z,16.67
2023-11-01T22:22:06.436Z,19.30
2023-11-01T22:24:09.935Z,24.35
2023-11-01T22:26:18.641Z,18.67
2023-11-01T22:28:20.238Z,18.17
2023-11-01T22:30:21.995Z,17.60
2023-11-01T22:32:24.806Z,20.13
2023-11-01T22:34:30.227Z,20.08
2023-11-01T22:36:37.218Z,20.50
2023-11-01T22:38:39.227Z,20.42
2023-11-01T22:40:43.305Z,20.55
2023-11-01T22:42:46.253Z,17.63
2023-11-01T22:44:49.442Z,17.90
2023-11-01T22:46:51.388Z,15.70
2023-11-01T22:48:53.079Z,16.20
2023-11-01T22:50:54.847Z,19.50
2023-11-01T22:52:56.864Z,19.80
2023-11-01T22:54:58.647Z,17.55
2023-11-01T22:57:00.697Z,16.90
2023-11-01T22:59:02.611Z,16.02
2023-11-01T23:01:05.035Z,16.27
2023-11-01T23:03:07.330Z,14.77
2023-11-01T23:05:10.068Z,16.50
2023-11-01T23:07:11.897Z,22.23
2023-11-01T23:09:14.099Z,17.30
2023-11-01T23:11:16.232Z,18.35
2023-11-01T23:13:18.348Z,17.95
2023-11-01T23:15:20.083Z,14.68
2023-11-01T23:17:21.890Z,24.60
2023-11-01T23:19:25.727Z,21.60
2023-11-01T23:23:32.128Z,28.55
2023-11-01T23:25:35.786Z,29.90
2023-11-01T23:27:37.529Z,33.20
2023-11-01T23:29:40.110Z,25.88
2023-11-01T23:31:46.680Z,26.85
2023-11-01T23:33:48.813Z,28.58
2023-11-01T23:35:53.305Z,26.00
2023-11-01T23:37:56.339Z,25.70
2023-11-01T23:39:57.944Z,21.25
2023-11-01T23:41:59.959Z,19.80
2023-11-01T23:44:03.670Z,19.42
2023-11-01T23:46:17.535Z,20.25
2023-11-01T23:48:21.129Z,22.35
2023-11-01T23:50:47.447Z,20.17
2023-11-01T23:52:49.723Z,23.30
2023-11-01T23:54:53.530Z,22.95
2023-11-01T23:56:55.325Z,25.67
2023-11-01T23:58:57.032Z,21.75
